Hamlin, Kentucky
Current Conditions -  °F | °C
As of 9:55 PM on Friday 24 Oct 2014 (Local Time) from KCEY Reporting Station
Clear Clear  
Wind Chill: 50°   Ceiling: Unl
Heat Index: 50°   Visibility: 7mi
Dew Point: 50°   Wind: 5mph
Humidity: 100%   Direction: 220°SW
Pressure: 30.08"   Gusts: NA
Location:  36.6°N, 88.08°W
Report Text: KCEY 250255Z AUTO 22004KT 7SM CLR 10/10 A3008 RMK AO1
Loading
Personal Weather Stations






























Interactive Weather Map
Tropical Storm Tracking
New forecast layout! Learn more

10-Day Weather Forecast

Advertisements
Track Severe Weather on mobile